Time;durP1;ratioP1;P1;durP2;ratioP2;P2;SDS_P1;SDS_P2;PMS_P1;PMS_P2;Temp;Humidity;BMP_temperature;BMP_pressure;BME280_temperature;BME280_humidity;BME280_pressure;Samples;Min_cycle;Max_cycle;Signal;HPM_P1;HPM_P2
2022/03/18 00:02:12;;;;;;;1999.90;999.90;;;7.70;68.70;;;;;;4976210;28;20045;-85
2022/03/18 00:04:38;;;;;;;1999.90;999.90;;;7.70;68.80;;;;;;4984246;28;20046;-85
2022/03/18 00:07:05;;;;;;;1999.90;999.90;;;7.70;68.80;;;;;;4983833;28;20034;-85
2022/03/18 00:09:31;;;;;;;1999.90;999.90;;;7.70;68.80;;;;;;4985837;28;20034;-85
2022/03/18 00:11:57;;;;;;;1999.90;999.90;;;7.70;68.80;;;;;;4989482;28;20038;-85
2022/03/18 00:14:23;;;;;;;1999.90;999.90;;;7.70;68.80;;;;;;4993015;28;20411;-84
2022/03/18 00:16:49;;;;;;;1999.90;999.90;;;7.70;68.80;;;;;;4987294;28;20038;-85
2022/03/18 00:19:16;;;;;;;1999.90;999.90;;;7.70;68.80;;;;;;4985797;28;20033;-85
2022/03/18 00:21:42;;;;;;;1999.90;999.90;;;7.70;68.80;;;;;;4988386;28;20037;-85
2022/03/18 00:24:09;;;;;;;1999.90;999.90;;;7.70;68.90;;;;;;4969707;28;20058;-85
2022/03/18 00:26:36;;;;;;;1999.90;999.90;;;7.70;68.90;;;;;;4980113;28;20038;-85
2022/03/18 00:29:02;;;;;;;1999.90;999.90;;;7.70;68.90;;;;;;4984892;28;20034;-85
2022/03/18 00:31:29;;;;;;;1999.90;999.90;;;7.60;68.90;;;;;;4990960;28;20042;-85
2022/03/18 00:33:55;;;;;;;1999.90;999.90;;;7.60;69.00;;;;;;4984881;28;20026;-85
2022/03/18 00:36:21;;;;;;;1999.90;999.90;;;7.60;69.10;;;;;;4992311;28;20487;-85
2022/03/18 00:38:47;;;;;;;1999.90;999.90;;;7.60;69.10;;;;;;4991224;28;20037;-84
2022/03/18 00:41:13;;;;;;;1999.90;999.90;;;7.60;69.00;;;;;;4992188;28;20038;-84
2022/03/18 00:43:40;;;;;;;1999.90;999.90;;;7.60;69.00;;;;;;4974707;28;20426;-85
2022/03/18 00:46:06;;;;;;;1999.90;999.90;;;7.60;69.00;;;;;;4984715;28;20455;-85
2022/03/18 00:54:01;;;;;;;1999.90;999.90;;;7.50;68.90;;;;;;4997677;28;20038;-85
2022/03/18 00:56:27;;;;;;;1999.90;999.90;;;7.50;69.00;;;;;;4991919;28;20058;-85
2022/03/18 00:58:53;;;;;;;1999.90;999.90;;;7.50;69.10;;;;;;4989443;28;20053;-85
2022/03/18 01:01:19;;;;;;;1999.90;999.90;;;7.40;69.10;;;;;;4987985;28;20219;-85
2022/03/18 01:03:45;;;;;;;1999.90;999.90;;;7.40;69.10;;;;;;4990057;28;20411;-85
2022/03/18 01:06:11;;;;;;;1999.90;999.90;;;7.40;69.10;;;;;;4989900;28;20030;-85
2022/03/18 01:08:37;;;;;;;1999.90;999.90;;;7.40;69.10;;;;;;4984719;28;20053;-85
2022/03/18 01:11:04;;;;;;;1999.90;999.90;;;7.40;69.10;;;;;;4992039;28;20050;-85
2022/03/18 01:13:30;;;;;;;1999.90;999.90;;;7.40;69.20;;;;;;4971952;28;20419;-84
2022/03/18 01:15:56;;;;;;;1999.90;999.90;;;7.40;69.20;;;;;;4984478;28;20039;-85
2022/03/18 01:18:22;;;;;;;1999.90;999.90;;;7.40;69.20;;;;;;4990604;28;20050;-85
2022/03/18 01:20:48;;;;;;;1999.90;999.90;;;7.40;69.20;;;;;;4987102;28;20034;-85
2022/03/18 01:23:14;;;;;;;1999.90;999.90;;;7.30;69.20;;;;;;4991057;28;20030;-85
2022/03/18 01:25:41;;;;;;;1999.90;999.90;;;7.30;69.20;;;;;;4987685;28;20038;-85
2022/03/18 01:28:07;;;;;;;1999.90;999.90;;;7.20;69.20;;;;;;4991720;28;20030;-85
2022/03/18 01:30:33;;;;;;;1999.90;999.90;;;7.20;69.20;;;;;;4989913;28;20494;-85
2022/03/18 01:33:02;;;;;;;1999.90;999.90;;;7.20;69.20;;;;;;4970948;28;20039;-85
2022/03/18 01:35:28;;;;;;;1999.90;999.90;;;7.20;69.20;;;;;;4988200;28;20395;-85
2022/03/18 01:37:55;;;;;;;1999.90;999.90;;;7.20;69.20;;;;;;4983283;28;20459;-85
2022/03/18 01:40:21;;;;;;;1999.90;999.90;;;7.20;69.20;;;;;;4970398;28;20474;-85
2022/03/18 01:42:47;;;;;;;1999.90;999.90;;;7.20;69.20;;;;;;4972792;28;20046;-85
2022/03/18 01:45:13;;;;;;;1999.90;999.90;;;7.20;69.20;;;;;;4990379;28;20038;-85
2022/03/18 01:47:42;;;;;;;1999.90;999.90;;;7.20;69.20;;;;;;4968314;28;20391;-85
2022/03/18 01:50:10;;;;;;;1999.90;999.90;;;7.20;69.20;;;;;;4983207;28;20065;-84
2022/03/18 01:52:37;;;;;;;1999.90;999.90;;;7.20;69.20;;;;;;4986413;28;20026;-85
2022/03/18 01:55:04;;;;;;;1999.90;999.90;;;7.20;69.20;;;;;;4984253;28;20043;-85
2022/03/18 01:57:30;;;;;;;1999.90;999.90;;;7.10;69.30;;;;;;4986257;28;20047;-85
2022/03/18 01:59:57;;;;;;;1999.90;999.90;;;7.10;69.30;;;;;;4975174;28;20046;-85
2022/03/18 02:02:23;;;;;;;1999.90;999.90;;;7.10;69.30;;;;;;4989864;28;20041;-85
2022/03/18 02:04:49;;;;;;;1999.90;999.90;;;7.00;69.30;;;;;;4954483;28;20046;-85
2022/03/18 02:07:15;;;;;;;1999.90;999.90;;;7.00;69.30;;;;;;4985003;28;20027;-85
2022/03/18 02:09:41;;;;;;;1999.90;999.90;;;7.00;69.40;;;;;;4986287;28;20042;-85
2022/03/18 02:12:09;;;;;;;1999.90;999.90;;;7.00;69.40;;;;;;4987689;28;20047;-85
2022/03/18 02:14:42;;;;;;;1999.90;999.90;;;6.90;69.40;;;;;;4990663;28;20054;-84
2022/03/18 02:17:12;;;;;;;1999.90;999.90;;;6.90;69.50;;;;;;4985895;28;20513;-85
2022/03/18 02:19:39;;;;;;;1999.90;999.90;;;6.90;69.50;;;;;;4983825;28;20038;-85
2022/03/18 02:22:19;;;;;;;1999.90;999.90;;;6.80;69.40;;;;;;4957288;28;20042;-84
2022/03/18 02:24:46;;;;;;;1999.90;999.90;;;6.80;69.50;;;;;;4986911;28;20072;-84
2022/03/18 02:27:13;;;;;;;1999.90;999.90;;;6.80;69.50;;;;;;4991431;28;20026;-85
2022/03/18 02:29:39;;;;;;;1999.90;999.90;;;6.70;69.50;;;;;;4990063;28;20041;-84
2022/03/18 02:32:06;;;;;;;514.47;263.80;;;6.70;69.50;;;;;;4983429;28;20041;-85
2022/03/18 02:34:32;;;;;;;514.75;264.08;;;6.70;69.60;;;;;;4985657;28;20022;-85
2022/03/18 02:36:58;;;;;;;18.80;17.90;;;6.70;69.60;;;;;;4985182;28;20042;-85
2022/03/18 02:39:25;;;;;;;19.33;18.43;;;6.60;69.60;;;;;;4987709;28;20034;-84
2022/03/18 02:41:51;;;;;;;514.47;263.80;;;6.60;69.70;;;;;;4973051;28;20034;-85
2022/03/18 02:44:17;;;;;;;19.05;18.15;;;6.60;69.70;;;;;;4988315;28;20057;-84
2022/03/18 02:46:43;;;;;;;19.45;18.55;;;6.60;69.70;;;;;;4982771;28;20030;-85
2022/03/18 02:49:09;;;;;;;19.60;18.70;;;6.60;69.70;;;;;;4974670;28;20378;-85
2022/03/18 02:51:38;;;;;;;19.70;18.80;;;6.60;69.70;;;;;;4987954;28;20034;-85
2022/03/18 02:54:05;;;;;;;20.27;19.37;;;6.60;69.70;;;;;;4985626;28;20042;-85
2022/03/18 02:56:31;;;;;;;18.73;17.83;;;6.60;69.70;;;;;;4991143;28;20041;-85
2022/03/18 02:58:57;;;;;;;19.70;18.80;;;6.60;69.70;;;;;;4985979;28;20221;-77
2022/03/18 03:01:25;;;;;;;20.43;19.53;;;6.50;69.60;;;;;;4981330;28;20034;-83
2022/03/18 03:03:51;;;;;;;21.83;20.20;;;6.50;69.60;;;;;;4980876;28;20053;-84
2022/03/18 03:09:02;;;;;;;19.90;19.00;;;6.50;69.60;;;;;;4982236;28;20030;-86
2022/03/18 03:11:28;;;;;;;20.37;19.47;;;6.50;69.60;;;;;;4988344;28;20045;-85
2022/03/18 03:13:55;;;;;;;19.37;18.47;;;6.40;69.60;;;;;;4988977;28;20038;-85
2022/03/18 03:16:21;;;;;;;19.53;18.63;;;6.40;69.60;;;;;;4991293;28;20031;-85
2022/03/18 03:18:48;;;;;;;19.43;18.53;;;6.40;69.70;;;;;;4991945;28;20369;-85
2022/03/18 03:21:14;;;;;;;19.17;18.27;;;6.40;69.60;;;;;;4990351;28;20030;-85
2022/03/18 03:23:41;;;;;;;18.57;17.70;;;6.40;69.60;;;;;;4991799;28;20034;-85
2022/03/18 03:26:07;;;;;;;19.37;18.47;;;6.40;69.60;;;;;;4989065;28;20046;-84
2022/03/18 03:28:33;;;;;;;19.67;18.77;;;6.40;69.60;;;;;;4984711;28;20333;-85
2022/03/18 03:31:00;;;;;;;19.50;18.60;;;6.40;69.70;;;;;;4984967;28;20027;-85
2022/03/18 03:33:26;;;;;;;20.95;19.85;;;6.40;69.70;;;;;;4976949;28;20049;-85
2022/03/18 03:35:53;;;;;;;21.10;20.10;;;6.30;69.70;;;;;;4985940;28;20379;-85
2022/03/18 03:38:21;;;;;;;20.13;19.23;;;6.30;69.60;;;;;;4993077;28;20391;-85
2022/03/18 03:40:47;;;;;;;19.27;18.17;;;6.30;69.60;;;;;;4991822;28;20030;-85
2022/03/18 03:43:13;;;;;;;19.07;18.17;;;6.30;69.60;;;;;;4987282;28;20030;-85
2022/03/18 03:45:40;;;;;;;17.80;17.00;;;6.30;69.60;;;;;;4987012;28;20050;-85
2022/03/18 03:48:06;;;;;;;19.07;18.17;;;6.20;69.60;;;;;;4992565;28;20050;-85
2022/03/18 03:50:33;;;;;;;19.73;18.83;;;6.30;69.60;;;;;;4989691;28;20033;-85
2022/03/18 03:52:59;;;;;;;18.80;17.90;;;6.30;69.60;;;;;;4986055;28;20022;-86
2022/03/18 03:55:25;;;;;;;18.47;17.67;;;6.30;69.50;;;;;;4985118;28;20030;-84
2022/03/18 03:57:51;;;;;;;19.40;18.50;;;6.30;69.50;;;;;;4988273;28;20038;-85
2022/03/18 04:00:17;;;;;;;19.00;18.10;;;6.30;69.50;;;;;;4991494;28;20030;-85
2022/03/18 04:02:43;;;;;;;18.33;17.43;;;6.30;69.50;;;;;;4993336;28;20031;-84
2022/03/18 04:05:09;;;;;;;18.10;17.30;;;6.20;69.40;;;;;;4976241;28;20061;-84
2022/03/18 04:07:36;;;;;;;19.17;18.27;;;6.30;69.40;;;;;;4969383;28;20494;-87
2022/03/18 04:10:07;;;;;;;18.90;18.00;;;6.30;69.30;;;;;;4975336;28;20383;-85
2022/03/18 04:12:33;;;;;;;18.38;17.58;;;6.30;69.30;;;;;;4985908;28;20051;-84
2022/03/18 04:15:00;;;;;;;19.00;18.10;;;6.30;69.20;;;;;;4959518;28;20042;-86
2022/03/18 04:17:26;;;;;;;17.67;16.87;;;6.30;69.20;;;;;;4991511;28;20049;-87
2022/03/18 04:19:53;;;;;;;18.70;17.80;;;6.30;69.20;;;;;;4992618;28;20380;-87
2022/03/18 04:22:22;;;;;;;19.07;18.17;;;6.30;69.10;;;;;;4989275;28;20019;-86
2022/03/18 04:24:48;;;;;;;18.67;17.77;;;6.30;69.10;;;;;;4986812;28;20086;-85
2022/03/18 04:27:14;;;;;;;19.20;18.30;;;6.30;69.10;;;;;;4982714;28;20031;-84
2022/03/18 04:29:40;;;;;;;18.97;18.07;;;6.30;69.10;;;;;;4992914;28;20050;-86
2022/03/18 04:32:07;;;;;;;18.27;17.47;;;6.30;69.10;;;;;;4988746;28;20038;-83
2022/03/18 04:34:33;;;;;;;18.67;17.77;;;6.30;69.20;;;;;;4972561;28;20035;-86
2022/03/18 04:36:59;;;;;;;17.70;16.90;;;6.20;69.10;;;;;;4986890;28;20043;-87
2022/03/18 04:39:25;;;;;;;18.53;17.70;;;6.20;69.20;;;;;;4975775;28;20038;-87
2022/03/18 04:41:51;;;;;;;17.53;16.73;;;6.20;69.10;;;;;;4992578;28;20041;-86
2022/03/18 04:44:17;;;;;;;18.47;17.67;;;6.20;69.20;;;;;;4964723;28;20046;-83
2022/03/18 04:46:43;;;;;;;18.77;17.87;;;6.20;69.20;;;;;;4961984;28;20048;-85
2022/03/18 04:49:09;;;;;;;18.73;17.83;;;6.10;69.30;;;;;;4978058;28;20391;-87
2022/03/18 04:51:35;;;;;;;19.13;18.23;;;6.10;69.20;;;;;;4990890;28;20027;-85
2022/03/18 04:54:02;;;;;;;19.37;18.47;;;6.10;69.30;;;;;;4992332;28;20391;-85
2022/03/18 04:59:12;;;;;;;18.07;17.27;;;6.10;69.30;;;;;;4979980;28;20053;-85
2022/03/18 05:01:38;;;;;;;19.37;18.47;;;6.00;69.30;;;;;;4986552;28;20035;-88
2022/03/18 05:04:04;;;;;;;19.33;18.43;;;6.00;69.30;;;;;;4986283;28;20502;-84
2022/03/18 05:06:30;;;;;;;19.37;18.47;;;6.10;69.40;;;;;;4990790;28;20034;-85
2022/03/18 05:08:56;;;;;;;19.67;18.77;;;6.00;69.40;;;;;;4975027;28;20530;-85
2022/03/18 05:11:22;;;;;;;18.70;17.80;;;6.00;69.40;;;;;;4987577;28;20031;-86
2022/03/18 05:13:49;;;;;;;18.63;17.77;;;6.00;69.40;;;;;;4984541;28;20518;-87
2022/03/18 05:16:15;;;;;;;18.63;17.73;;;6.00;69.50;;;;;;4969536;28;20030;-84
2022/03/18 05:18:41;;;;;;;19.77;18.67;;;6.00;69.50;;;;;;4987986;28;20039;-87
2022/03/18 05:21:07;;;;;;;18.33;17.53;;;6.00;69.60;;;;;;4988610;28;20499;-86
2022/03/18 05:23:33;;;;;;;17.73;16.93;;;6.00;69.60;;;;;;4988602;28;20023;-86
2022/03/18 05:25:59;;;;;;;18.80;17.90;;;5.90;69.60;;;;;;4989594;28;20038;-85
2022/03/18 05:28:26;;;;;;;19.30;18.40;;;5.90;69.60;;;;;;4985976;28;20395;-85
2022/03/18 05:30:52;;;;;;;19.17;18.27;;;5.90;69.60;;;;;;4984939;28;20051;-85
2022/03/18 05:33:19;;;;;;;18.80;17.90;;;5.90;69.70;;;;;;4974117;28;20490;-85
2022/03/18 05:35:45;;;;;;;19.33;18.43;;;5.90;69.60;;;;;;4971830;28;20045;-85
2022/03/18 05:38:11;;;;;;;18.80;17.90;;;5.90;69.80;;;;;;4988996;28;20053;-85
2022/03/18 05:40:37;;;;;;;19.57;18.67;;;5.90;69.80;;;;;;4989429;28;20034;-85
2022/03/18 05:43:03;;;;;;;18.53;17.70;;;5.90;69.80;;;;;;4985741;28;20031;-85
2022/03/18 05:45:30;;;;;;;18.10;17.30;;;5.90;69.80;;;;;;4988398;28;20045;-85
2022/03/18 05:47:56;;;;;;;19.43;18.53;;;5.90;69.90;;;;;;4988339;28;20034;-85
2022/03/18 05:50:22;;;;;;;19.97;19.07;;;5.90;69.90;;;;;;4987988;28;20026;-85
2022/03/18 05:52:48;;;;;;;19.97;18.83;;;5.90;69.90;;;;;;4989880;28;20046;-85
2022/03/18 05:55:14;;;;;;;20.03;19.13;;;5.90;70.00;;;;;;4986654;28;20033;-85
2022/03/18 05:57:40;;;;;;;19.30;18.40;;;5.90;70.00;;;;;;4990735;28;20488;-84
2022/03/18 06:00:07;;;;;;;24.60;23.43;;;5.90;70.10;;;;;;4973423;28;20042;-85
2022/03/18 06:02:36;;;;;;;19.80;18.90;;;5.90;70.10;;;;;;4987658;28;20186;-85
2022/03/18 06:05:02;;;;;;;19.77;18.87;;;5.90;70.20;;;;;;4986246;28;20053;-85
2022/03/18 06:07:28;;;;;;;19.50;18.60;;;5.90;70.20;;;;;;4988299;28;20026;-84
2022/03/18 06:12:39;;;;;;;19.83;18.93;;;5.90;70.30;;;;;;4993516;28;20057;-85
2022/03/18 06:15:05;;;;;;;18.03;17.23;;;5.90;70.40;;;;;;4990395;28;20042;-85
2022/03/18 06:17:31;;;;;;;19.07;18.17;;;6.00;70.60;;;;;;4975447;28;20522;-85
2022/03/18 06:19:58;;;;;;;19.90;19.00;;;5.90;70.50;;;;;;4985129;28;20042;-85
2022/03/18 06:22:24;;;;;;;22.27;21.27;;;6.00;70.60;;;;;;4986112;28;20395;-85
2022/03/18 06:24:50;;;;;;;18.80;17.90;;;6.00;70.60;;;;;;4971038;28;20065;-85
2022/03/18 06:27:16;;;;;;;18.10;17.30;;;6.00;70.70;;;;;;4973620;28;20483;-85
2022/03/18 06:29:43;;;;;;;19.47;18.53;;;6.00;70.60;;;;;;4991369;28;20034;-84
2022/03/18 06:32:09;;;;;;;19.10;18.20;;;6.00;70.70;;;;;;4985871;28;20038;-85
2022/03/18 06:34:35;;;;;;;19.53;18.60;;;6.00;70.80;;;;;;4985433;28;20031;-85
2022/03/18 06:37:02;;;;;;;19.40;18.50;;;6.00;70.90;;;;;;4984879;28;20039;-85
2022/03/18 06:39:28;;;;;;;19.40;18.50;;;6.00;70.80;;;;;;4987977;28;20029;-85
2022/03/18 06:41:54;;;;;;;20.43;19.47;;;6.00;70.90;;;;;;4974931;28;20043;-84
2022/03/18 06:44:20;;;;;;;22.97;21.90;;;6.00;70.90;;;;;;4987241;28;20035;-85
2022/03/18 06:46:46;;;;;;;20.17;19.27;;;6.00;71.00;;;;;;4984464;28;20030;-85
2022/03/18 06:49:15;;;;;;;22.53;21.43;;;6.00;71.10;;;;;;4989541;28;20089;-85
2022/03/18 06:51:41;;;;;;;21.37;20.37;;;6.10;71.10;;;;;;4984011;28;20022;-88
2022/03/18 06:54:07;;;;;;;21.07;20.07;;;6.10;71.20;;;;;;4990639;28;20034;-85
2022/03/18 06:56:34;;;;;;;20.27;19.37;;;6.10;71.10;;;;;;4989857;28;20030;-87
2022/03/18 06:59:00;;;;;;;20.90;19.90;;;6.10;71.10;;;;;;4988839;28;20494;-86
2022/03/18 07:01:26;;;;;;;21.77;20.77;;;6.20;71.10;;;;;;4988215;28;20034;-85
2022/03/18 07:03:52;;;;;;;21.47;20.47;;;6.20;71.20;;;;;;4986598;28;20526;-83
2022/03/18 07:06:18;;;;;;;20.37;19.47;;;6.30;71.10;;;;;;4969098;28;20499;-85
2022/03/18 07:08:44;;;;;;;21.70;20.50;;;6.30;71.00;;;;;;4990870;28;20034;-83
2022/03/18 07:11:13;;;;;;;20.33;19.33;;;6.40;71.00;;;;;;4993647;28;20038;-83
2022/03/18 07:13:43;;;;;;;20.30;19.37;;;6.40;71.00;;;;;;4995101;28;20049;-83
2022/03/18 07:18:54;;;;;;;20.63;19.70;;;6.40;71.00;;;;;;4996343;28;20053;-83
2022/03/18 07:21:20;;;;;;;21.17;20.17;;;6.50;70.90;;;;;;4991168;28;20410;-84
2022/03/18 07:23:46;;;;;;;22.20;21.20;;;6.50;70.90;;;;;;4984755;28;20031;-85
2022/03/18 07:26:12;;;;;;;20.93;19.93;;;6.50;71.00;;;;;;4975526;28;20380;-84
2022/03/18 07:28:39;;;;;;;22.20;21.20;;;6.60;71.00;;;;;;4992051;28;20031;-84
2022/03/18 07:31:05;;;;;;;22.57;21.57;;;6.60;71.00;;;;;;4960860;28;20530;-83
2022/03/18 07:33:31;;;;;;;22.97;21.87;;;6.70;70.90;;;;;;4994777;28;20030;-84
2022/03/18 07:35:57;;;;;;;683.70;349.57;;;6.70;70.90;;;;;;4993423;28;20483;-85
2022/03/18 07:38:23;;;;;;;1999.90;999.90;;;6.80;70.80;;;;;;4993995;28;20041;-86
2022/03/18 07:40:49;;;;;;;1999.90;999.90;;;6.90;70.80;;;;;;4994642;28;20065;-84
2022/03/18 07:43:15;;;;;;;1999.90;999.90;;;6.90;70.60;;;;;;4993623;28;20030;-85
2022/03/18 07:45:41;;;;;;;1999.90;999.90;;;7.10;70.60;;;;;;4990695;28;20050;-85
2022/03/18 07:48:09;;;;;;;1999.90;999.90;;;7.10;70.40;;;;;;4994563;28;20061;-82
2022/03/18 07:50:36;;;;;;;1999.90;999.90;;;7.20;71.00;;;;;;4994769;28;20038;-81
2022/03/18 07:53:05;;;;;;;1999.90;999.90;;;7.30;70.10;;;;;;4988399;28;20035;-82
2022/03/18 07:55:32;;;;;;;1999.90;999.90;;;7.40;70.10;;;;;;4991775;28;20041;-84
2022/03/18 07:57:58;;;;;;;1999.90;999.90;;;7.40;69.90;;;;;;4992887;28;20037;-85
2022/03/18 08:00:24;;;;;;;1999.90;999.90;;;7.50;69.80;;;;;;4989105;28;20414;-86
2022/03/18 08:02:52;;;;;;;1999.90;999.90;;;7.60;69.70;;;;;;4977180;28;20041;-86
2022/03/18 08:05:19;;;;;;;1999.90;999.90;;;7.70;69.50;;;;;;4973755;28;20054;-86
2022/03/18 08:07:46;;;;;;;1999.90;999.90;;;7.80;69.50;;;;;;4989588;28;20046;-86
2022/03/18 08:10:13;;;;;;;1999.90;999.90;;;7.90;69.30;;;;;;4991701;28;20039;-86
2022/03/18 08:12:40;;;;;;;1999.90;999.90;;;8.00;69.20;;;;;;4988821;28;20046;-87
2022/03/18 08:15:10;;;;;;;1999.90;999.90;;;8.10;69.00;;;;;;4991066;28;20039;-85
2022/03/18 08:17:40;;;;;;;1999.90;999.90;;;8.20;68.80;;;;;;4995333;28;20034;-84
2022/03/18 08:20:10;;;;;;;1999.90;999.90;;;8.40;68.60;;;;;;4982444;28;20394;-85
2022/03/18 08:22:37;;;;;;;1999.90;999.90;;;8.50;68.50;;;;;;4986822;28;20033;-80
2022/03/18 08:25:04;;;;;;;1999.90;999.90;;;8.50;68.20;;;;;;4985220;28;20050;-86
2022/03/18 08:27:30;;;;;;;1999.90;999.90;;;8.60;68.00;;;;;;4989318;28;20050;-87
2022/03/18 08:29:59;;;;;;;1999.90;999.90;;;8.70;67.90;;;;;;4964143;28;20045;-84
2022/03/18 08:32:26;;;;;;;1999.90;999.90;;;8.70;67.80;;;;;;4989316;28;20038;-84
2022/03/18 08:34:53;;;;;;;1999.90;999.90;;;8.80;67.70;;;;;;4974830;28;20359;-82
2022/03/18 08:37:56;;;;;;;1999.90;999.90;;;8.90;67.40;;;;;;4975140;28;20038;-84
2022/03/18 08:40:05;;;;;;;1999.90;999.90;;;9.00;67.20;;;;;;4990996;28;20034;-86
2022/03/18 08:42:31;;;;;;;1999.90;999.90;;;9.10;67.00;;;;;;4973872;28;20387;-87
2022/03/18 08:44:58;;;;;;;1999.90;999.90;;;9.30;66.70;;;;;;4990752;28;20045;-83
2022/03/18 08:47:25;;;;;;;1999.90;999.90;;;9.30;66.30;;;;;;4986677;28;20038;-86
2022/03/18 08:49:51;;;;;;;1999.90;999.90;;;9.50;66.20;;;;;;4988865;28;20046;-85
2022/03/18 08:52:17;;;;;;;1999.90;999.90;;;9.50;65.90;;;;;;4991113;28;20027;-82
2022/03/18 08:54:43;;;;;;;1999.90;999.90;;;9.60;65.70;;;;;;4993501;28;20030;-84
2022/03/18 08:57:09;;;;;;;1999.90;999.90;;;9.70;65.50;;;;;;4991195;28;20038;-84
2022/03/18 08:59:35;;;;;;;1999.90;999.90;;;9.80;65.40;;;;;;4993179;28;20038;-85
2022/03/18 09:02:02;;;;;;;1999.90;999.90;;;9.80;65.20;;;;;;4988388;28;20053;-84
2022/03/18 09:04:28;;;;;;;1999.90;999.90;;;9.90;65.00;;;;;;4993010;28;20034;-84
2022/03/18 09:06:54;;;;;;;1999.90;999.90;;;10.00;65.00;;;;;;4972645;28;20054;-85
2022/03/18 09:09:20;;;;;;;1999.90;999.90;;;10.10;64.80;;;;;;4991060;28;20030;-85
2022/03/18 09:11:46;;;;;;;1999.90;999.90;;;10.10;64.40;;;;;;4989850;28;20379;-86
2022/03/18 09:14:13;;;;;;;1999.90;999.90;;;10.20;64.20;;;;;;4987767;28;20057;-86
2022/03/18 09:16:40;;;;;;;1999.90;999.90;;;10.30;64.30;;;;;;4980023;28;20479;-87
2022/03/18 09:19:06;;;;;;;1999.90;999.90;;;10.30;63.90;;;;;;4958263;28;20047;-85
2022/03/18 09:21:32;;;;;;;1999.90;999.90;;;10.40;63.70;;;;;;4987268;28;20094;-86
2022/03/18 09:23:58;;;;;;;1999.90;999.90;;;10.40;63.70;;;;;;4989987;28;20045;-84
2022/03/18 09:26:24;;;;;;;1999.90;999.90;;;10.40;63.70;;;;;;4988270;28;20048;-84
2022/03/18 09:28:51;;;;;;;1999.90;999.90;;;10.50;63.30;;;;;;4988997;28;20034;-84
2022/03/18 09:31:17;;;;;;;1999.90;999.90;;;10.50;63.10;;;;;;4989059;28;20038;-86
2022/03/18 09:33:43;;;;;;;1999.90;999.90;;;10.50;63.00;;;;;;4988056;28;20023;-87
2022/03/18 09:36:10;;;;;;;1999.90;999.90;;;10.60;63.10;;;;;;4959997;28;20509;-87
2022/03/18 09:38:37;;;;;;;1999.90;999.90;;;10.60;62.90;;;;;;4976438;28;20039;-87
2022/03/18 09:41:05;;;;;;;1999.90;999.90;;;10.70;62.50;;;;;;4986366;28;20038;-87
2022/03/18 09:43:40;;;;;;;1999.90;999.90;;;10.70;62.10;;;;;;4972249;28;20039;-87
2022/03/18 09:46:08;;;;;;;1999.90;999.90;;;10.80;62.30;;;;;;4959020;28;20050;-87
2022/03/18 09:48:35;;;;;;;1999.90;999.90;;;10.90;62.10;;;;;;4986134;28;20022;-87
2022/03/18 09:51:01;;;;;;;1999.90;999.90;;;11.00;61.70;;;;;;4957240;28;20041;-86
2022/03/18 09:53:27;;;;;;;1999.90;999.90;;;11.00;61.70;;;;;;4990710;28;20027;-87
2022/03/18 09:55:54;;;;;;;1999.90;999.90;;;11.10;61.50;;;;;;4986754;28;20269;-87
2022/03/18 09:58:21;;;;;;;1999.90;999.90;;;11.20;61.30;;;;;;4954267;28;20042;-89
2022/03/18 10:00:50;;;;;;;1999.90;999.90;;;11.30;61.10;;;;;;4974209;28;20039;-86
2022/03/18 10:03:17;;;;;;;1999.90;999.90;;;11.40;60.90;;;;;;4986784;28;20026;-86
2022/03/18 10:05:54;;;;;;;1999.90;999.90;;;11.40;60.50;;;;;;4988970;28;20042;-88
2022/03/18 10:08:21;;;;;;;1999.90;999.90;;;11.50;60.40;;;;;;4987825;28;20042;-88
2022/03/18 10:10:48;;;;;;;1999.90;999.90;;;11.50;60.00;;;;;;4989351;28;20042;-88
2022/03/18 10:13:15;;;;;;;1999.90;999.90;;;11.60;59.90;;;;;;4989281;28;20031;-86
2022/03/18 10:15:41;;;;;;;1999.90;999.90;;;11.70;59.70;;;;;;4989750;28;20387;-85
2022/03/18 10:18:10;;;;;;;1999.90;999.90;;;11.80;59.50;;;;;;4974485;28;20054;-84
2022/03/18 10:20:45;;;;;;;1999.90;999.90;;;11.90;59.10;;;;;;4991377;28;20510;-87
2022/03/18 10:23:15;;;;;;;1999.90;999.90;;;12.00;58.90;;;;;;4988279;28;20030;-89
2022/03/18 10:25:53;;;;;;;1999.90;999.90;;;12.20;58.70;;;;;;4992356;28;20038;-74
2022/03/18 10:28:44;;;;;;;1999.90;999.90;;;12.30;58.50;;;;;;4993585;28;20038;-86
2022/03/18 10:31:11;;;;;;;1999.90;999.90;;;12.40;57.90;;;;;;4997279;28;20030;-86
2022/03/18 10:39:26;;;;;;;1999.90;999.90;;;12.70;57.30;;;;;;4988578;28;20034;-87
2022/03/18 10:41:53;;;;;;;1999.90;999.90;;;12.80;57.10;;;;;;4991163;28;20037;-84
2022/03/18 10:44:19;;;;;;;1999.90;999.90;;;12.90;56.70;;;;;;4992895;28;20037;-84
2022/03/18 10:46:47;;;;;;;1999.90;999.90;;;12.90;56.20;;;;;;4975140;28;20058;-85
2022/03/18 10:49:13;;;;;;;1999.90;999.90;;;13.00;55.90;;;;;;4990800;28;20387;-85
2022/03/18 10:51:40;;;;;;;1999.90;999.90;;;13.00;55.70;;;;;;4994922;28;20514;-85
2022/03/18 10:54:06;;;;;;;1999.90;999.90;;;13.00;55.60;;;;;;4995885;28;20027;-85
2022/03/18 10:57:00;;;;;;;1999.90;999.90;;;13.00;55.60;;;;;;4987263;28;20038;-84
2022/03/18 10:59:27;;;;;;;1999.90;999.90;;;13.10;55.60;;;;;;4992324;28;20848;-84
2022/03/18 11:01:56;;;;;;;1999.90;999.90;;;13.20;55.40;;;;;;4988650;28;20042;-84
2022/03/18 11:04:26;;;;;;;1999.90;999.90;;;13.30;55.40;;;;;;4990309;28;20029;-85
2022/03/18 11:12:31;;;;;;;1999.90;999.90;;;13.40;53.70;;;;;;4991841;28;20031;-85
2022/03/18 11:14:57;;;;;;;1999.90;999.90;;;13.40;53.60;;;;;;4991565;28;20026;-85
2022/03/18 11:17:24;;;;;;;1999.90;999.90;;;13.50;53.70;;;;;;4991516;28;20213;-85
2022/03/18 11:19:53;;;;;;;1999.90;999.90;;;13.60;53.60;;;;;;4974399;28;20038;-85
2022/03/18 11:22:21;;;;;;;1999.90;999.90;;;13.70;53.60;;;;;;4991261;28;20368;-84
2022/03/18 11:24:48;;;;;;;1999.90;999.90;;;13.80;53.20;;;;;;4975180;28;20114;-85
2022/03/18 11:27:14;;;;;;;1999.90;999.90;;;13.90;53.10;;;;;;4992764;28;20042;-85
2022/03/18 11:29:40;;;;;;;1999.90;999.90;;;14.00;53.10;;;;;;4992558;28;20030;-85
2022/03/18 11:32:09;;;;;;;1999.90;999.90;;;14.10;53.30;;;;;;4990421;28;20061;-84
2022/03/18 11:34:50;;;;;;;1999.90;999.90;;;14.20;52.10;;;;;;4992849;28;20035;-85
2022/03/18 11:37:17;;;;;;;1999.90;999.90;;;14.20;51.70;;;;;;4985026;28;20030;-85
2022/03/18 11:39:43;;;;;;;1999.90;999.90;;;14.30;51.50;;;;;;4969984;28;20030;-85
2022/03/18 11:42:09;;;;;;;1999.90;999.90;;;14.40;51.50;;;;;;4989773;28;20038;-85
2022/03/18 11:44:40;;;;;;;1999.90;999.90;;;14.50;51.10;;;;;;4992179;28;20053;-85
2022/03/18 11:47:30;;;;;;;1999.90;999.90;;;14.50;50.70;;;;;;4992344;28;20662;-85
2022/03/18 11:50:00;;;;;;;1999.90;999.90;;;14.50;49.80;;;;;;4993272;28;20065;-85
2022/03/18 11:52:26;;;;;;;1999.90;999.90;;;14.50;49.80;;;;;;4989115;28;20027;-84
2022/03/18 11:54:54;;;;;;;1999.90;999.90;;;14.50;48.70;;;;;;4985662;28;20034;-85
2022/03/18 11:57:43;;;;;;;1999.90;999.90;;;14.50;48.40;;;;;;4990067;28;20214;-84
2022/03/18 12:00:32;;;;;;;1999.90;999.90;;;14.50;48.20;;;;;;4990350;28;20041;-84
2022/03/18 12:03:02;;;;;;;1999.90;999.90;;;14.60;47.80;;;;;;4991573;28;20026;-85
2022/03/18 12:05:31;;;;;;;1999.90;999.90;;;14.60;47.50;;;;;;4989944;28;20046;-85
2022/03/18 12:07:59;;;;;;;1999.90;999.90;;;14.70;47.50;;;;;;4990347;28;20038;-85
2022/03/18 12:10:33;;;;;;;1999.90;999.90;;;14.80;47.30;;;;;;4987307;28;20026;-84
2022/03/18 12:13:02;;;;;;;1999.90;999.90;;;14.80;46.80;;;;;;4984442;28;20054;-85
2022/03/18 12:15:29;;;;;;;1999.90;999.90;;;14.80;46.50;;;;;;4990001;28;20041;-85
2022/03/18 12:17:58;;;;;;;1999.90;999.90;;;14.90;46.30;;;;;;4977451;28;20380;-85
2022/03/18 12:20:30;;;;;;;1999.90;999.90;;;15.00;45.70;;;;;;4988192;28;20479;-85
2022/03/18 12:23:07;;;;;;;1999.90;999.90;;;15.10;45.40;;;;;;4973319;28;20038;-85
2022/03/18 12:25:33;;;;;;;1999.90;999.90;;;15.20;45.20;;;;;;4993063;28;20054;-85
2022/03/18 12:27:59;;;;;;;1999.90;999.90;;;15.30;44.70;;;;;;4987139;28;20039;-85
2022/03/18 12:30:26;;;;;;;1999.90;999.90;;;15.30;44.60;;;;;;4989909;28;20042;-85
2022/03/18 12:32:56;;;;;;;1999.90;999.90;;;15.40;44.30;;;;;;4977634;28;20038;-86
2022/03/18 12:35:31;;;;;;;1999.90;999.90;;;15.40;43.80;;;;;;4975429;28;20069;-85
2022/03/18 12:38:10;;;;;;;1999.90;999.90;;;15.40;43.50;;;;;;4975391;28;20042;-85
2022/03/18 12:40:37;;;;;;;1999.90;999.90;;;15.40;43.10;;;;;;4987041;28;20452;-85
2022/03/18 12:43:03;;;;;;;1999.90;999.90;;;15.40;43.20;;;;;;4986540;28;20030;-85
2022/03/18 12:45:42;;;;;;;1999.90;999.90;;;15.50;43.50;;;;;;4989258;28;20034;-85